Terminal Aerodrome Forecast
Issued by NWS

Home | Current Version | Previous Version | Text Only | Print | Product List | Glossary On
Versions: 1 2 3 4 5 6 7 8 9 10 11 12 13 14
032
FTUS46 KPDT 251720
TAFALW
TAF
KALW 251720Z 2518/2618 23010KT P6SM FEW060
     FM252000 22010KT P6SM SCT060
     FM260500 19010KT P6SM SKC
     FM261600 21012KT P6SM FEW200=

USA.gov is the U.S. government's official web portal to all federal, state and local government web resources and services.